Time;durP1;ratioP1;P1;durP2;ratioP2;P2;SDS_P1;SDS_P2;PMS_P1;PMS_P2;Temp;Humidity;BMP_temperature;BMP_pressure;BME280_temperature;BME280_humidity;BME280_pressure;Samples;Min_cycle;Max_cycle;Signal;HPM_P1;HPM_P2
2022/09/20 00:01:22;;;;;;;6.15;2.03;;;14.50;99.90;;;;;;4885633;29;20373;-91
2022/09/20 00:03:51;;;;;;;7.97;2.15;;;14.50;99.90;;;;;;4902344;29;20033;-90
2022/09/20 00:06:19;;;;;;;10.10;2.20;;;14.50;99.90;;;;;;4902217;29;20067;-90
2022/09/20 00:08:46;;;;;;;10.27;2.00;;;14.50;99.90;;;;;;4900934;29;20058;-89
2022/09/20 00:11:20;;;;;;;6.50;1.80;;;14.40;99.90;;;;;;4918011;29;20089;-91
2022/09/20 00:13:47;;;;;;;5.90;1.67;;;14.40;99.90;;;;;;4900438;29;20024;-90
2022/09/20 00:16:16;;;;;;;7.50;1.73;;;14.50;99.90;;;;;;4901633;29;20035;-90
2022/09/20 00:18:42;;;;;;;6.65;1.92;;;14.40;99.90;;;;;;4900604;29;20029;-91
2022/09/20 00:21:16;;;;;;;6.30;2.03;;;14.40;99.90;;;;;;4916605;29;20037;-91
2022/09/20 00:23:41;;;;;;;10.00;2.10;;;14.40;99.90;;;;;;4900668;29;20084;-91
2022/09/20 00:26:07;;;;;;;8.18;1.85;;;14.40;99.90;;;;;;4884127;29;20506;-90
2022/09/20 00:28:33;;;;;;;7.50;2.30;;;14.40;99.90;;;;;;4901733;29;20035;-91
2022/09/20 00:30:59;;;;;;;6.47;1.70;;;14.40;99.90;;;;;;4900291;29;20047;-90
2022/09/20 00:35:06;;;;;;;8.23;1.95;;;14.40;99.90;;;;;;4900490;29;20033;-90
2022/09/20 00:36:17;;;;;;;8.63;1.92;;;14.30;99.90;;;;;;4900878;29;20454;-90
2022/09/20 00:38:43;;;;;;;7.32;1.60;;;14.40;99.90;;;;;;4885754;29;20024;-90
2022/09/20 00:41:09;;;;;;;6.75;1.90;;;14.30;99.90;;;;;;4919167;29;20036;-90
2022/09/20 00:43:35;;;;;;;5.22;1.98;;;14.30;99.90;;;;;;4902994;29;20032;-90
2022/09/20 00:46:02;;;;;;;8.88;1.67;;;14.30;99.90;;;;;;4903119;29;20036;-91
2022/09/20 00:48:31;;;;;;;9.07;1.95;;;14.30;99.90;;;;;;4887605;29;20095;-90
2022/09/20 00:51:09;;;;;;;5.00;1.50;;;14.30;99.90;;;;;;4903265;29;20036;-89
2022/09/20 00:53:49;;;;;;;5.65;1.80;;;14.30;99.90;;;;;;4920910;29;20024;-90
2022/09/20 00:56:20;;;;;;;6.28;2.35;;;14.30;99.90;;;;;;4904175;29;20040;-90
2022/09/20 00:58:58;;;;;;;7.40;1.83;;;14.30;99.90;;;;;;4918806;29;20035;-91
2022/09/20 01:01:26;;;;;;;6.20;1.90;;;14.20;99.90;;;;;;4918784;29;20032;-90
2022/09/20 01:03:53;;;;;;;8.15;1.70;;;14.20;99.90;;;;;;4902684;29;20028;-90
2022/09/20 01:06:19;;;;;;;5.32;1.58;;;14.20;99.90;;;;;;4887547;29;20036;-90
2022/09/20 01:08:49;;;;;;;7.60;2.03;;;14.20;99.90;;;;;;4902995;29;20060;-91
2022/09/20 01:11:15;;;;;;;5.93;1.42;;;14.20;99.90;;;;;;4919051;29;20043;-90
2022/09/20 01:13:41;;;;;;;6.53;1.60;;;14.20;99.90;;;;;;4890023;29;20032;-90
2022/09/20 01:16:07;;;;;;;8.98;2.17;;;14.20;99.90;;;;;;4903253;29;20167;-91
2022/09/20 01:18:35;;;;;;;5.40;1.63;;;14.20;99.90;;;;;;4886814;29;20079;-90
2022/09/20 01:21:03;;;;;;;7.45;1.88;;;14.20;99.90;;;;;;4919240;29;20492;-91
2022/09/20 01:23:54;;;;;;;10.65;2.00;;;14.20;99.90;;;;;;4902582;29;20500;-90
2022/09/20 01:26:40;;;;;;;7.40;1.90;;;14.20;99.90;;;;;;4919538;29;20031;-91
2022/09/20 01:29:15;;;;;;;6.38;1.77;;;14.20;99.90;;;;;;4902084;29;20094;-90
2022/09/20 01:31:52;;;;;;;6.65;1.95;;;14.10;99.90;;;;;;4902543;29;20040;-91
2022/09/20 01:34:27;;;;;;;6.50;1.48;;;14.10;99.90;;;;;;4918117;29;20496;-90
2022/09/20 01:37:07;;;;;;;8.65;2.17;;;14.10;99.90;;;;;;4902292;29;20032;-90
2022/09/20 01:39:46;;;;;;;9.27;1.30;;;14.10;99.90;;;;;;4919276;29;20097;-90
2022/09/20 01:42:13;;;;;;;6.70;1.85;;;14.10;99.90;;;;;;4919150;29;20114;-90
2022/09/20 01:45:13;;;;;;;8.25;1.92;;;14.10;99.90;;;;;;4919207;29;20024;-90
2022/09/20 01:47:46;;;;;;;5.35;1.70;;;14.10;99.90;;;;;;4919141;29;20028;-91
2022/09/20 01:50:28;;;;;;;11.23;2.20;;;14.00;99.90;;;;;;4918948;29;20540;-90
2022/09/20 01:53:44;;;;;;;7.45;1.63;;;14.00;99.90;;;;;;4901974;29;20035;-89
2022/09/20 01:56:27;;;;;;;8.30;2.25;;;14.00;99.90;;;;;;4827073;29;20053;-90
2022/09/20 01:59:25;;;;;;;10.32;2.15;;;14.00;99.90;;;;;;4911637;29;20336;-90
2022/09/20 02:02:08;;;;;;;10.23;1.88;;;14.00;99.90;;;;;;4902018;29;20083;-90
2022/09/20 02:05:11;;;;;;;5.60;1.58;;;14.00;99.90;;;;;;4901707;29;20491;-89
2022/09/20 02:07:59;;;;;;;7.68;2.00;;;14.00;99.90;;;;;;4901915;29;20055;-90
2022/09/20 02:10:37;;;;;;;8.77;2.10;;;14.00;99.90;;;;;;4901689;29;20091;-91
2022/09/20 02:13:15;;;;;;;6.00;1.60;;;14.00;99.90;;;;;;4919182;29;20099;-90
2022/09/20 02:15:47;;;;;;;9.95;1.83;;;13.90;99.90;;;;;;4918471;29;20028;-91
2022/09/20 02:18:40;;;;;;;6.82;1.70;;;13.90;99.90;;;;;;4918710;29;20028;-90
2022/09/20 02:21:39;;;;;;;6.63;2.22;;;13.90;99.90;;;;;;4918650;29;20032;-90
2022/09/20 02:24:26;;;;;;;4.28;1.65;;;13.90;99.90;;;;;;4918574;29;20047;-91
2022/09/20 02:27:01;;;;;;;4.95;1.65;;;13.90;99.90;;;;;;4901684;29;20115;-90
2022/09/20 02:29:54;;;;;;;6.72;2.00;;;13.90;99.90;;;;;;4901656;29;20032;-91
2022/09/20 02:32:45;;;;;;;8.75;1.92;;;13.90;99.90;;;;;;4901751;29;20187;-90
2022/09/20 02:35:34;;;;;;;8.18;2.03;;;13.80;99.90;;;;;;4901898;29;20111;-90
2022/09/20 02:38:37;;;;;;;10.30;2.10;;;13.80;99.90;;;;;;4901452;29;20024;-91
2022/09/20 02:41:32;;;;;;;6.93;1.80;;;13.80;99.90;;;;;;4917363;29;20092;-90
2022/09/20 02:44:09;;;;;;;6.00;1.83;;;13.80;99.90;;;;;;4917224;29;20088;-90
2022/09/20 02:46:46;;;;;;;8.35;2.15;;;13.80;99.90;;;;;;4902401;29;20492;-91
2022/09/20 02:49:34;;;;;;;7.68;2.15;;;13.80;99.90;;;;;;4902398;29;20076;-90
2022/09/20 02:52:22;;;;;;;6.53;2.13;;;13.70;99.90;;;;;;4922193;29;20036;-91
2022/09/20 02:55:04;;;;;;;7.45;2.00;;;13.70;99.90;;;;;;4925990;29;20062;-90
2022/09/20 02:57:43;;;;;;;8.07;2.03;;;13.70;99.90;;;;;;4910657;29;20020;-90
2022/09/20 03:00:25;;;;;;;6.88;2.38;;;13.70;99.90;;;;;;4924248;29;20035;-90
2022/09/20 03:03:22;;;;;;;8.32;1.77;;;13.70;99.90;;;;;;4905331;29;20484;-90
2022/09/20 03:06:02;;;;;;;8.55;1.98;;;13.70;99.90;;;;;;4920883;29;20084;-90
2022/09/20 03:08:34;;;;;;;10.55;2.30;;;13.70;99.90;;;;;;4922374;29;20055;-92
2022/09/20 03:11:12;;;;;;;7.53;2.30;;;13.70;99.90;;;;;;4904836;29;20131;-91
2022/09/20 03:14:05;;;;;;;7.75;2.58;;;13.70;99.90;;;;;;4904646;29;20032;-90
2022/09/20 03:16:44;;;;;;;7.13;2.05;;;13.70;99.90;;;;;;4905227;29;20024;-90
2022/09/20 03:19:38;;;;;;;5.63;2.03;;;13.70;99.90;;;;;;4904823;29;20071;-90
2022/09/20 03:22:29;;;;;;;8.77;2.00;;;13.70;99.90;;;;;;4871248;29;20042;-90
2022/09/20 03:25:06;;;;;;;10.40;2.25;;;13.70;99.90;;;;;;4921540;29;20098;-90
2022/09/20 03:27:48;;;;;;;9.60;2.45;;;13.70;99.90;;;;;;4921722;29;20028;-90
2022/09/20 03:30:33;;;;;;;4.60;1.92;;;13.70;99.90;;;;;;4905240;29;20036;-90
2022/09/20 03:33:25;;;;;;;5.90;1.88;;;13.60;99.90;;;;;;4904694;29;20129;-90
2022/09/20 03:36:13;;;;;;;8.07;2.30;;;13.60;99.90;;;;;;4904590;29;20444;-90
2022/09/20 03:38:44;;;;;;;6.65;2.15;;;13.60;99.90;;;;;;4904339;29;20024;-90
2022/09/20 03:41:22;;;;;;;7.95;2.20;;;13.50;99.90;;;;;;4921891;29;20500;-90
2022/09/20 03:43:55;;;;;;;5.25;2.20;;;13.50;99.90;;;;;;4904204;29;20083;-90
2022/09/20 03:46:25;;;;;;;9.35;2.83;;;13.50;99.90;;;;;;4904622;29;20480;-90
2022/09/20 03:49:08;;;;;;;6.90;2.20;;;13.50;99.90;;;;;;4921421;29;20107;-91
2022/09/20 03:51:54;;;;;;;8.98;2.45;;;13.50;99.90;;;;;;4905611;29;20028;-90
2022/09/20 03:54:28;;;;;;;6.68;2.15;;;13.50;99.90;;;;;;4904962;29;20036;-91
2022/09/20 03:57:11;;;;;;;6.72;2.20;;;13.50;99.90;;;;;;4921438;29;20035;-90
2022/09/20 04:00:03;;;;;;;6.38;2.38;;;13.50;99.90;;;;;;4904779;29;20055;-90
2022/09/20 04:02:28;;;;;;;6.47;2.35;;;13.50;99.90;;;;;;4921422;29;20159;-89
2022/09/20 04:05:10;;;;;;;8.85;2.33;;;13.50;99.90;;;;;;4904520;29;20060;-89
2022/09/20 04:07:36;;;;;;;8.88;3.15;;;13.50;99.90;;;;;;4904397;29;20031;-91
2022/09/20 04:10:27;;;;;;;7.80;2.63;;;13.50;99.90;;;;;;4921711;29;20028;-90
2022/09/20 04:13:19;;;;;;;7.38;2.40;;;13.50;99.90;;;;;;4921457;29;20075;-90
2022/09/20 04:16:22;;;;;;;6.20;2.20;;;13.50;99.90;;;;;;4905987;29;20032;-90
2022/09/20 04:18:55;;;;;;;5.82;2.33;;;13.50;99.90;;;;;;4924192;29;20027;-90
2022/09/20 04:21:32;;;;;;;4.55;2.47;;;13.50;99.90;;;;;;4908472;29;20043;-91
2022/09/20 04:24:22;;;;;;;4.35;2.42;;;13.50;99.90;;;;;;4924310;29;20028;-90
2022/09/20 04:27:16;;;;;;;6.18;2.33;;;13.50;99.90;;;;;;4906645;29;20020;-90
2022/09/20 04:29:59;;;;;;;6.90;2.50;;;13.50;99.90;;;;;;4915873;29;20039;-89
2022/09/20 04:32:48;;;;;;;5.28;2.55;;;13.50;99.90;;;;;;4909959;29;20036;-90
2022/09/20 04:38:19;;;;;;;5.03;2.13;;;13.40;99.90;;;;;;4934642;29;20100;-88
2022/09/20 04:41:16;;;;;;;5.88;2.20;;;13.40;99.90;;;;;;4895838;29;20063;-90
2022/09/20 04:44:21;;;;;;;6.30;2.47;;;13.40;99.90;;;;;;4910536;29;20039;-89
2022/09/20 04:47:22;;;;;;;8.98;3.13;;;13.40;99.90;;;;;;4911362;29;20021;-90
2022/09/20 04:50:37;;;;;;;6.88;2.53;;;13.40;99.90;;;;;;4922550;29;20028;-90
2022/09/20 04:53:25;;;;;;;5.60;2.22;;;13.40;99.90;;;;;;4904945;29;20039;-89
2022/09/20 04:56:09;;;;;;;3.72;2.03;;;13.30;99.90;;;;;;4920659;29;20032;-90
2022/09/20 04:58:48;;;;;;;5.05;2.50;;;13.30;99.90;;;;;;4902009;29;20043;-90
2022/09/20 05:01:36;;;;;;;6.53;2.85;;;13.30;99.90;;;;;;4901625;29;20080;-90
2022/09/20 05:04:19;;;;;;;6.22;2.05;;;13.30;99.90;;;;;;4916940;29;20032;-89
2022/09/20 05:07:18;;;;;;;7.15;2.45;;;13.30;99.90;;;;;;4913136;29;20032;-90
2022/09/20 05:10:06;;;;;;;5.70;2.10;;;13.30;99.90;;;;;;4901624;29;20092;-90
2022/09/20 05:12:51;;;;;;;6.78;2.50;;;13.30;99.90;;;;;;4901637;29;20032;-90
2022/09/20 05:15:49;;;;;;;5.22;2.50;;;13.30;99.90;;;;;;4900539;29;20041;-90
2022/09/20 05:18:37;;;;;;;5.28;2.40;;;13.30;99.90;;;;;;4873861;29;20045;-89
2022/09/20 05:21:17;;;;;;;5.47;2.10;;;13.30;99.90;;;;;;4895968;29;20127;-90
2022/09/20 05:24:15;;;;;;;7.03;2.50;;;13.30;99.90;;;;;;4916755;29;20119;-88
2022/09/20 05:27:11;;;;;;;5.35;2.05;;;13.20;99.90;;;;;;4897499;29;20025;-90
2022/09/20 05:30:01;;;;;;;5.30;2.17;;;13.30;99.90;;;;;;4914656;29;20028;-90
2022/09/20 05:32:44;;;;;;;6.72;2.45;;;13.30;99.90;;;;;;4903146;29;20042;-91
2022/09/20 05:35:31;;;;;;;10.85;3.03;;;13.30;99.90;;;;;;4899619;29;20029;-89
2022/09/20 05:38:10;;;;;;;5.95;2.40;;;13.20;99.90;;;;;;4916047;29;20080;-88
2022/09/20 05:41:12;;;;;;;7.47;2.30;;;13.30;99.90;;;;;;4898357;29;20063;-90
2022/09/20 05:44:20;;;;;;;5.07;2.47;;;13.30;99.90;;;;;;4916680;29;20025;-89
2022/09/20 05:46:56;;;;;;;6.63;2.33;;;13.30;99.90;;;;;;4872649;29;20028;-90
2022/09/20 05:50:14;;;;;;;7.65;2.40;;;13.20;99.90;;;;;;4903620;29;20044;-89
2022/09/20 05:53:08;;;;;;;7.90;2.78;;;13.30;99.90;;;;;;4866019;29;20074;-90
2022/09/20 05:55:56;;;;;;;10.13;2.92;;;13.20;99.90;;;;;;4850662;29;20060;-90
2022/09/20 05:58:39;;;;;;;7.00;2.50;;;13.20;99.90;;;;;;4890682;29;20100;-95
2022/09/20 06:01:17;;;;;;;9.05;2.72;;;13.20;99.90;;;;;;4896154;29;20120;-94
2022/09/20 06:04:13;;;;;;;5.47;2.22;;;13.20;99.90;;;;;;4911925;29;20033;-96
2022/09/20 06:07:35;;;;;;;5.78;2.50;;;13.20;99.90;;;;;;4895351;29;20021;-95
2022/09/20 06:10:39;;;;;;;5.43;2.20;;;13.20;99.90;;;;;;4895767;29;20027;-96
2022/09/20 06:13:23;;;;;;;6.03;2.47;;;13.20;99.90;;;;;;4912225;29;20084;-96
2022/09/20 06:16:05;;;;;;;8.50;2.83;;;13.20;99.90;;;;;;4913406;29;20036;-95
2022/09/20 06:19:21;;;;;;;6.72;2.30;;;13.20;99.90;;;;;;4912890;29;20017;-94
2022/09/20 06:21:51;;;;;;;9.15;2.92;;;13.20;99.90;;;;;;4894241;29;20048;-94
2022/09/20 06:24:38;;;;;;;7.93;2.57;;;13.10;99.90;;;;;;4910190;29;20061;-95
2022/09/20 06:27:12;;;;;;;7.13;2.55;;;13.20;99.90;;;;;;4895646;29;20477;-91
2022/09/20 06:29:44;;;;;;;7.97;3.05;;;13.10;99.90;;;;;;4896147;29;20508;-95
2022/09/20 06:32:14;;;;;;;6.43;2.97;;;13.20;99.90;;;;;;4895882;29;20028;-96
2022/09/20 06:34:40;;;;;;;5.30;2.42;;;13.10;99.90;;;;;;4895324;29;20037;-96
2022/09/20 06:42:59;;;;;;;5.47;3.08;;;13.20;99.90;;;;;;4931860;29;20108;-96
2022/09/20 06:45:24;;;;;;;6.18;2.72;;;13.20;99.90;;;;;;4929379;29;20099;-96
2022/09/20 06:47:50;;;;;;;7.80;2.75;;;13.20;99.90;;;;;;4914544;29;20044;-96
2022/09/20 06:50:29;;;;;;;;;;;;;;;;;;;;;
2022/09/20 06:52:57;;;;;;;5.82;2.55;;;13.20;99.90;;;;;;4931498;29;20097;-95
2022/09/20 06:55:29;;;;;;;8.85;2.80;;;13.20;99.90;;;;;;4898355;29;20034;-96
2022/09/20 06:57:55;;;;;;;8.10;2.40;;;13.20;99.90;;;;;;4914046;29;20052;-95
2022/09/20 07:00:23;;;;;;;6.47;2.78;;;13.20;99.90;;;;;;4914406;29;20096;-95
2022/09/20 07:02:49;;;;;;;4.72;2.80;;;13.20;99.90;;;;;;4929860;29;20039;-95
2022/09/20 07:05:20;;;;;;;9.23;2.92;;;13.30;99.90;;;;;;4899800;29;20028;-96
2022/09/20 07:07:46;;;;;;;6.28;2.83;;;13.30;99.90;;;;;;4914617;29;20050;-95
2022/09/20 07:10:15;;;;;;;6.50;2.65;;;13.30;99.90;;;;;;4897687;29;20039;-95
2022/09/20 07:12:41;;;;;;;7.63;2.88;;;13.30;99.90;;;;;;4928737;29;20047;-94
2022/09/20 07:15:07;;;;;;;6.18;2.90;;;13.40;99.90;;;;;;4928785;29;20453;-89
2022/09/20 07:17:33;;;;;;;7.70;2.80;;;13.40;99.90;;;;;;4912948;29;20027;-95
2022/09/20 07:19:59;;;;;;;8.15;2.70;;;13.40;99.90;;;;;;4915112;29;20024;-94
2022/09/20 07:22:36;;;;;;;5.68;2.47;;;13.40;99.90;;;;;;4911373;29;20035;-91
2022/09/20 07:25:04;;;;;;;6.85;3.22;;;13.40;99.90;;;;;;4906104;29;20032;-91
2022/09/20 07:27:29;;;;;;;6.25;2.30;;;13.50;99.90;;;;;;4890492;29;20032;-92
2022/09/20 07:29:55;;;;;;;7.50;2.50;;;13.50;99.90;;;;;;4912455;29;20027;-91
2022/09/20 07:32:23;;;;;;;6.93;2.03;;;13.50;99.90;;;;;;4907757;29;20072;-91
2022/09/20 07:34:57;;;;;;;7.43;1.75;;;13.50;99.90;;;;;;4924099;29;20020;-91
2022/09/20 07:37:24;;;;;;;4.63;1.70;;;13.60;99.90;;;;;;4944721;29;20033;-91
2022/09/20 07:39:53;;;;;;;5.38;1.63;;;13.60;99.90;;;;;;4922930;29;20048;-92
2022/09/20 07:42:19;;;;;;;5.90;2.17;;;13.60;99.90;;;;;;4921410;29;20037;-92
2022/09/20 07:44:48;;;;;;;5.88;1.90;;;13.60;99.90;;;;;;4939779;29;20027;-93
2022/09/20 07:47:24;;;;;;;;;;;;;;;;;;;;;
2022/09/20 07:49:55;;;;;;;7.45;1.90;;;13.60;99.90;;;;;;4907300;29;20596;-92
2022/09/20 07:52:22;;;;;;;5.72;1.90;;;13.60;99.90;;;;;;4909003;29;20041;-91
2022/09/20 07:55:05;;;;;;;;;;;;;;;;;;;;;
2022/09/20 07:57:39;;;;;;;1.77;1.20;;;13.60;99.90;;;;;;4911118;29;20101;-93
2022/09/20 08:00:07;;;;;;;5.38;1.60;;;13.60;99.90;;;;;;4911097;29;20032;-92
2022/09/20 08:02:33;;;;;;;4.68;1.42;;;13.70;99.90;;;;;;4910933;29;20056;-92
2022/09/20 08:05:04;;;;;;;5.07;1.50;;;13.70;99.90;;;;;;4901936;29;20028;-92
2022/09/20 08:07:29;;;;;;;3.88;1.50;;;13.70;99.90;;;;;;4909424;29;20032;-92
2022/09/20 08:10:00;;;;;;;5.25;1.65;;;13.70;99.90;;;;;;4909133;29;20075;-92
2022/09/20 08:12:26;;;;;;;5.40;1.75;;;13.80;99.90;;;;;;4896847;29;20059;-93
2022/09/20 08:14:55;;;;;;;4.70;1.60;;;13.80;99.90;;;;;;4926598;29;20021;-93
2022/09/20 08:17:27;;;;;;;6.03;1.80;;;13.80;99.90;;;;;;4895872;29;20119;-92
2022/09/20 08:20:05;;;;;;;5.03;1.75;;;13.80;99.90;;;;;;4911034;29;20031;-92
2022/09/20 08:22:33;;;;;;;5.93;1.85;;;13.80;99.90;;;;;;4911251;29;20024;-94
2022/09/20 08:25:09;;;;;;;10.57;2.67;;;13.90;99.90;;;;;;4896066;29;20029;-93
2022/09/20 08:27:36;;;;;;;4.60;1.77;;;13.90;99.90;;;;;;4897211;29;20047;-94
2022/09/20 08:30:12;;;;;;;2.75;1.50;;;13.90;99.90;;;;;;4928568;29;20060;-95
2022/09/20 08:32:40;;;;;;;4.20;1.95;;;14.00;99.90;;;;;;4912943;29;20045;-93
2022/09/20 08:35:13;;;;;;;6.85;2.22;;;14.00;99.90;;;;;;4897417;29;20370;-93
2022/09/20 08:37:42;;;;;;;5.18;1.83;;;14.00;99.90;;;;;;4916503;29;20031;-93
2022/09/20 08:40:14;;;;;;;5.95;1.65;;;14.10;99.90;;;;;;4917865;29;20052;-95
2022/09/20 08:42:43;;;;;;;6.00;1.60;;;14.10;99.90;;;;;;4917028;29;20036;-94
2022/09/20 08:45:22;;;;;;;5.05;1.40;;;14.20;99.90;;;;;;4932879;29;20092;-94
2022/09/20 08:48:02;;;;;;;5.15;1.48;;;14.20;99.90;;;;;;4915177;29;20032;-95
2022/09/20 08:50:33;;;;;;;3.25;1.67;;;14.30;99.90;;;;;;4917177;29;20512;-95
2022/09/20 08:53:06;;;;;;;3.80;1.50;;;14.30;99.90;;;;;;4933860;29;20115;-94
2022/09/20 08:55:33;;;;;;;3.13;1.20;;;14.40;99.90;;;;;;4916715;29;20035;-94
2022/09/20 08:57:59;;;;;;;1.48;0.82;;;14.40;99.90;;;;;;4915802;29;20111;-95
2022/09/20 09:00:39;;;;;;;3.08;1.40;;;14.40;99.90;;;;;;4916288;29;20028;-95
2022/09/20 09:03:16;;;;;;;2.55;0.90;;;14.50;99.90;;;;;;4912996;29;20099;-95
2022/09/20 09:05:53;;;;;;;6.55;1.20;;;14.50;99.90;;;;;;4915856;29;20040;-95
2022/09/20 09:08:52;;;;;;;2.75;0.70;;;14.60;99.90;;;;;;4916590;29;20038;-91
2022/09/20 09:11:23;;;;;;;1.65;0.80;;;14.60;99.90;;;;;;4901569;29;20048;-95
2022/09/20 09:14:46;;;;;;;3.42;0.80;;;14.60;99.90;;;;;;4931729;29;20053;-95
2022/09/20 09:16:49;;;;;;;2.90;0.70;;;14.70;99.90;;;;;;4932875;29;20035;-95
2022/09/20 09:19:32;;;;;;;6.07;1.08;;;14.70;99.90;;;;;;4933389;29;20084;-96
2022/09/20 09:22:04;;;;;;;3.13;0.73;;;14.70;99.90;;;;;;4916176;29;20028;-95
2022/09/20 09:24:38;;;;;;;4.00;1.02;;;14.80;99.90;;;;;;4934005;29;20035;-96
2022/09/20 09:27:22;;;;;;;1.48;0.70;;;14.80;99.90;;;;;;4900706;29;20036;-95
2022/09/20 09:29:50;;;;;;;5.22;1.27;;;14.80;99.90;;;;;;4917057;29;20016;-94
2022/09/20 09:32:27;;;;;;;3.58;0.98;;;14.80;99.90;;;;;;4917135;29;20028;-95
2022/09/20 09:34:54;;;;;;;3.75;0.90;;;14.90;99.90;;;;;;4901342;29;20032;-95
2022/09/20 09:37:29;;;;;;;4.13;1.10;;;14.90;99.90;;;;;;4915332;29;20365;-94
2022/09/20 09:40:21;;;;;;;5.78;1.38;;;14.90;99.90;;;;;;4932686;29;20048;-94
2022/09/20 09:42:56;;;;;;;3.47;1.17;;;15.00;99.90;;;;;;4916723;29;20036;-94
2022/09/20 09:45:37;;;;;;;3.72;0.90;;;14.90;99.90;;;;;;4917707;29;20020;-95
2022/09/20 09:48:38;;;;;;;;;;;;;;;;;;;;;
2022/09/20 09:51:16;;;;;;;2.80;0.90;;;15.00;99.90;;;;;;4933643;29;20055;-93
2022/09/20 09:53:43;;;;;;;6.22;1.27;;;15.10;99.90;;;;;;4916377;29;20408;-95
2022/09/20 09:56:20;;;;;;;7.28;1.42;;;15.10;99.90;;;;;;4915911;29;20028;-95
2022/09/20 09:59:04;;;;;;;8.48;1.00;;;15.10;99.90;;;;;;4932259;29;20024;-95
2022/09/20 10:02:05;;;;;;;4.80;0.98;;;15.10;99.90;;;;;;4915585;29;20028;-95
2022/09/20 10:04:44;;;;;;;5.70;1.30;;;15.10;99.90;;;;;;4915902;29;20028;-94
2022/09/20 10:07:29;;;;;;;3.85;1.23;;;15.10;99.90;;;;;;4933019;29;20039;-94
2022/09/20 10:10:15;;;;;;;10.40;1.38;;;15.10;99.90;;;;;;4908278;29;20028;-94
2022/09/20 10:13:11;;;;;;;5.55;1.08;;;15.20;99.90;;;;;;4903158;29;20520;-95
2022/09/20 10:16:16;;;;;;;6.07;1.17;;;15.20;99.90;;;;;;4904233;29;20035;-94
2022/09/20 10:18:57;;;;;;;4.25;1.23;;;15.20;99.90;;;;;;4866206;29;20047;-96
2022/09/20 10:21:44;;;;;;;2.85;1.10;;;15.20;99.90;;;;;;4919540;29;20183;-95
2022/09/20 10:24:21;;;;;;;4.55;1.15;;;15.30;99.90;;;;;;4919715;29;20032;-95
2022/09/20 10:27:24;;;;;;;3.95;0.80;;;15.40;99.90;;;;;;4904119;29;20499;-95
2022/09/20 10:30:14;;;;;;;4.05;0.77;;;15.40;99.90;;;;;;4920909;29;20469;-95
2022/09/20 10:32:49;;;;;;;4.93;0.90;;;15.50;99.90;;;;;;4906943;29;20040;-95
2022/09/20 10:35:24;;;;;;;2.10;0.80;;;15.50;99.90;;;;;;4905985;29;20029;-94
2022/09/20 10:38:12;;;;;;;2.20;0.80;;;15.60;99.90;;;;;;4903869;29;20028;-96
2022/09/20 10:44:04;;;;;;;3.97;0.80;;;15.70;99.90;;;;;;4901825;29;20040;-95
2022/09/20 10:46:51;;;;;;;3.45;0.77;;;15.80;99.90;;;;;;4916369;29;20029;-94
2022/09/20 10:49:27;;;;;;;3.33;0.95;;;15.90;99.90;;;;;;4917650;29;20035;-95
2022/09/20 10:52:28;;;;;;;2.65;0.73;;;15.90;99.90;;;;;;4915417;29;20060;-95
2022/09/20 10:55:24;;;;;;;5.63;0.70;;;16.00;99.90;;;;;;4937607;29;20017;-95
2022/09/20 10:58:23;;;;;;;3.85;1.35;;;16.10;99.90;;;;;;4917644;29;20033;-95
2022/09/20 11:01:19;;;;;;;2.75;0.98;;;16.10;99.90;;;;;;4903242;29;20506;-96
2022/09/20 11:03:59;;;;;;;3.15;0.95;;;16.10;99.90;;;;;;4902215;29;20492;-95
2022/09/20 11:06:35;;;;;;;2.97;0.80;;;16.10;99.90;;;;;;4902368;29;20033;-96
2022/09/20 11:09:02;;;;;;;5.25;0.93;;;16.20;99.90;;;;;;4902226;29;20104;-96
2022/09/20 11:11:50;;;;;;;4.03;1.00;;;16.20;99.90;;;;;;4911866;29;20041;-95
2022/09/20 11:14:31;;;;;;;3.92;0.90;;;16.30;99.90;;;;;;4922216;29;20025;-94
2022/09/20 11:17:01;;;;;;;5.30;1.23;;;16.30;99.90;;;;;;4924814;29;20109;-91
2022/09/20 11:20:06;;;;;;;3.58;1.13;;;16.40;99.90;;;;;;4925674;29;20040;-96
2022/09/20 11:22:38;;;;;;;1.67;0.70;;;16.40;99.90;;;;;;4936622;29;20088;-96
2022/09/20 11:25:07;;;;;;;3.20;0.80;;;16.50;99.90;;;;;;4923732;29;20032;-96
2022/09/20 11:27:41;;;;;;;5.95;1.08;;;16.50;99.90;;;;;;4923581;29;20028;-96
2022/09/20 11:30:17;;;;;;;3.08;1.10;;;16.60;99.90;;;;;;4922855;29;20131;-94
2022/09/20 11:33:07;;;;;;;4.93;1.00;;;16.70;99.90;;;;;;4905022;29;20096;-95
2022/09/20 11:35:37;;;;;;;5.68;1.38;;;16.80;99.90;;;;;;4911080;29;20044;-95
2022/09/20 11:38:15;;;;;;;3.58;0.80;;;16.80;99.90;;;;;;4925092;29;20096;-94
2022/09/20 11:41:04;;;;;;;5.60;1.10;;;16.90;99.90;;;;;;4936833;29;20116;-95
2022/09/20 11:43:31;;;;;;;3.90;1.10;;;16.90;99.90;;;;;;4913825;29;20036;-95
2022/09/20 11:46:06;;;;;;;3.60;1.08;;;17.00;99.90;;;;;;4922180;29;20040;-96
2022/09/20 11:48:52;;;;;;;3.38;1.35;;;17.00;99.90;;;;;;4922292;29;20036;-96
2022/09/20 11:51:45;;;;;;;6.05;0.90;;;17.10;99.90;;;;;;4922703;29;20058;-94
2022/09/20 11:54:29;;;;;;;6.05;0.90;;;17.10;99.90;;;;;;4906869;29;20028;-96
2022/09/20 11:56:59;;;;;;;3.03;0.90;;;17.20;99.90;;;;;;4923646;29;20032;-95
2022/09/20 11:59:36;;;;;;;4.40;1.10;;;17.20;99.90;;;;;;4923605;29;20032;-96
2022/09/20 12:02:15;;;;;;;3.88;1.08;;;17.20;99.90;;;;;;4923189;29;20024;-96
2022/09/20 12:04:46;;;;;;;2.38;0.70;;;17.20;99.90;;;;;;4924996;29;20528;-96
2022/09/20 12:07:17;;;;;;;7.13;1.17;;;17.20;99.90;;;;;;4924657;29;20032;-96
2022/09/20 12:09:50;;;;;;;3.25;0.88;;;17.30;99.90;;;;;;4906326;29;20414;-96
2022/09/20 12:12:46;;;;;;;4.75;0.82;;;17.30;99.90;;;;;;4923721;29;20036;-96
2022/09/20 12:15:26;;;;;;;2.78;0.50;;;17.40;99.90;;;;;;4923429;29;20044;-96
2022/09/20 12:17:52;;;;;;;1.92;0.80;;;17.50;99.90;;;;;;4907487;29;20020;-95
2022/09/20 12:20:41;;;;;;;3.70;1.30;;;17.50;99.90;;;;;;4906902;29;20532;-94
2022/09/20 12:23:39;;;;;;;4.63;1.15;;;17.60;99.90;;;;;;4905618;29;20036;-95
2022/09/20 12:26:16;;;;;;;5.90;0.90;;;17.70;99.90;;;;;;4906636;29;20035;-95
2022/09/20 12:28:50;;;;;;;6.63;0.95;;;17.80;99.90;;;;;;4906660;29;20020;-94
2022/09/20 12:31:21;;;;;;;2.97;0.95;;;17.80;99.90;;;;;;4922931;29;20040;-95
2022/09/20 12:34:08;;;;;;;3.40;0.68;;;17.80;99.60;;;;;;4906118;29;20143;-95
2022/09/20 12:36:45;;;;;;;2.83;0.60;;;17.80;99.80;;;;;;4911776;29;20053;-95
2022/09/20 12:39:11;;;;;;;3.20;0.85;;;17.90;99.60;;;;;;4906781;29;20083;-95
2022/09/20 12:42:09;;;;;;;5.18;0.88;;;17.90;99.90;;;;;;4906112;29;20052;-96
2022/09/20 12:44:50;;;;;;;2.83;0.65;;;18.00;99.90;;;;;;4906720;29;20062;-95
2022/09/20 12:47:23;;;;;;;5.65;0.70;;;18.10;99.60;;;;;;4907108;29;20025;-95
2022/09/20 12:52:57;;;;;;;4.70;0.80;;;18.30;99.50;;;;;;4922942;29;20062;-94
2022/09/20 12:55:28;;;;;;;4.35;0.80;;;18.30;99.60;;;;;;4922032;29;20020;-95
2022/09/20 12:58:00;;;;;;;4.85;1.13;;;18.30;99.30;;;;;;4923167;29;20027;-95
2022/09/20 13:00:51;;;;;;;4.25;0.95;;;18.30;98.80;;;;;;4908055;29;20028;-94
2022/09/20 13:03:22;;;;;;;3.83;1.00;;;18.30;98.90;;;;;;4923795;29;20028;-95
2022/09/20 13:06:12;;;;;;;5.13;1.00;;;18.30;98.50;;;;;;4908978;29;20304;-91
2022/09/20 13:08:59;;;;;;;5.47;1.02;;;18.30;98.20;;;;;;4909080;29;20028;-95
2022/09/20 13:11:46;;;;;;;6.22;1.02;;;18.40;98.80;;;;;;4910348;29;20051;-95
2022/09/20 13:14:39;;;;;;;4.60;0.85;;;18.40;98.80;;;;;;4921051;29;20045;-95
2022/09/20 13:17:12;;;;;;;2.75;0.60;;;18.40;98.70;;;;;;4918316;29;20040;-96
2022/09/20 13:19:49;;;;;;;3.17;0.77;;;18.40;98.00;;;;;;4922299;29;20024;-96
2022/09/20 13:22:29;;;;;;;4.07;0.80;;;18.40;98.30;;;;;;4889563;29;20084;-95
2022/09/20 13:25:01;;;;;;;6.43;0.93;;;18.50;97.90;;;;;;4921726;29;20146;-94
2022/09/20 13:28:02;;;;;;;5.22;0.82;;;18.50;98.00;;;;;;4904994;29;20036;-95
2022/09/20 13:30:32;;;;;;;3.22;0.82;;;18.50;98.20;;;;;;4908447;29;20040;-96
2022/09/20 13:33:23;;;;;;;4.68;0.70;;;18.60;97.60;;;;;;4904757;29;20111;-95
2022/09/20 13:35:53;;;;;;;6.05;0.75;;;18.60;97.70;;;;;;4889442;29;20388;-95
2022/09/20 13:38:23;;;;;;;3.35;0.70;;;18.60;97.10;;;;;;4907594;29;20060;-95
2022/09/20 13:40:51;;;;;;;7.05;1.15;;;18.60;96.90;;;;;;4920151;29;20039;-89
2022/09/20 13:43:37;;;;;;;4.90;0.82;;;18.60;96.90;;;;;;4922558;29;20108;-94
2022/09/20 13:46:07;;;;;;;6.57;1.33;;;18.50;97.30;;;;;;4907529;29;20028;-95
2022/09/20 13:48:32;;;;;;;3.30;1.15;;;18.50;96.90;;;;;;4918291;29;20020;-94
2022/09/20 13:50:58;;;;;;;6.32;1.15;;;18.50;97.10;;;;;;4902580;29;20509;-94
2022/09/20 13:53:26;;;;;;;5.50;1.30;;;18.50;96.80;;;;;;4886040;29;20386;-94
2022/09/20 13:55:55;;;;;;;3.55;1.27;;;18.60;96.80;;;;;;4901787;29;20036;-94
2022/09/20 13:58:29;;;;;;;3.80;0.73;;;18.60;96.70;;;;;;4917112;29;20469;-95
2022/09/20 14:01:15;;;;;;;4.97;1.33;;;18.60;96.80;;;;;;4901489;29;20124;-94
2022/09/20 14:03:43;;;;;;;5.15;1.02;;;18.60;97.00;;;;;;4903565;29;20124;-96
2022/09/20 14:06:14;;;;;;;4.35;1.10;;;18.60;96.60;;;;;;4902085;29;20021;-95
2022/09/20 14:08:42;;;;;;;6.75;1.02;;;18.60;96.60;;;;;;4901395;29;20020;-95